Breckenridge, CO (80424)

7:14 PM MDT on September 30, 2014 (GMT -0600)
Valley of the Blue | Change Station
CLOSE
Current Station
Personal Weather Station
Location: Blue River, CO
Elevation: 10430 ft
Nearby Weather Stations

Elev 10430 ft 39.39 °N, 106.05 °W | Updated 3 seconds ago

Overcast
Overcast
36.7 °F
Feels Like 37 °F
N
0.0
Wind Variable Wind from SSE
Gusts 3.1 mph

Today
High -- | Low -- °F
--% Chance of Precip.
Yesterday
High -- | Low -- °F
Precip. -- in
6:59 AM 6:48 PM
Waxing Crescent, 42% visible
Pressure 29.82 in
Visibility 10.0 miles
Clouds Few 4200 ft
Scattered Clouds 4900 ft
Overcast 6000 ft
Windchill 37 °F
Dew Point 32 °F
Humidity 82%
Rainfall 0.00 in
Snow Depth 0 in , 5 in , 11 in
UV 0 out of 12
Pollen 3.50 out of 12
Air Quality Not available.
Flu Activity Not available.
METAR KLXV 010053Z AUTO 32009KT 10SM FEW042 SCT049 OVC060 02/M01 A3008 RMK AO2 RAB05E15UPB47E50SNB28E47 SLP097 P0000 T00221006

More Conditions Fewer Conditions

Pressure 29.82 in
Visibility 10.0 miles
Clouds Few 4200 ft
Scattered Clouds 4900 ft
Overcast 6000 ft
Windchill 37 °F
Dew Point 32 °F
Humidity 82%
Rainfall 0.00 in
Snow Depth 0 in , 5 in , 11 in
UV 0 out of 12
Pollen 3.50 out of 12
Air Quality Not available.
Flu Activity Not available.
METAR KLXV 010053Z AUTO 32009KT 10SM FEW042 SCT049 OVC060 02/M01 A3008 RMK AO2 RAB05E15UPB47E50SNB28E47 SLP097 P0000 T00221006

More Conditions Fewer Conditions

10-Day Weather Forecast

Almanac

Astronomy

Sep. 30, 2014 Rise Set
Actual Time 6:59 AM MDT 6:48 PM MDT
Civil Twilight 6:32 AM MDT 7:14 PM MDT
Nautical Twilight 6:01 AM MDT 7:46 PM MDT
Astronomical Twilight 5:29 AM MDT 8:17 PM MDT
Moon 1:08 PM MDT (9/30) 11:22 PM MDT (9/30)
Length of Visible Light 12h 42m
Length of Day
11h 48m
Tomorrow will be 2m 34s shorter.
Waxing Crescent, 42% of the Moon is Illuminated
Today
Waxing Crescent
Oct 1
First Quarter
Oct 8
Full
Oct 15
Last Quarter
Oct 23
New

Today's Extremes

State Highs State Lows

Community

WunderPhotos

Upload Photos

1,757,815 photos uploaded!

Nearby

Snow Depth

Station Depth Elevation
Phantom Valley 0 in 9030 ft
Rawah 5 in 9020 ft
Mccoy Park 11 in 9480 ft
Kiln 0 in 9600 ft
Bear Lake 0 in 9500 ft

Earthquake Activity

City Distance Mag. Time & Date
No recent earthquake activity has been reported nearby.
Minimum magnitude displayed is 2.5.

Coastal Water Temperatures

Place Temperature
No Stations Reporting

Nearby Weather Stations